sensor_id;sensor_type;location;lat;lon;timestamp;temperature;humidity
12434;DHT22;6281;49.038;8.372;2024-03-25T00:01:22;6.40;99.90
12434;DHT22;6281;49.038;8.372;2024-03-25T00:03:51;6.40;99.90
12434;DHT22;6281;49.038;8.372;2024-03-25T00:06:18;6.30;99.90
12434;DHT22;6281;49.038;8.372;2024-03-25T00:08:44;6.30;99.90
12434;DHT22;6281;49.038;8.372;2024-03-25T00:11:13;6.30;99.90
12434;DHT22;6281;49.038;8.372;2024-03-25T00:13:39;6.40;99.90
12434;DHT22;6281;49.038;8.372;2024-03-25T00:16:07;6.40;99.90
12434;DHT22;6281;49.038;8.372;2024-03-25T00:18:35;6.40;99.90
12434;DHT22;6281;49.038;8.372;2024-03-25T00:21:04;6.30;99.90
12434;DHT22;6281;49.038;8.372;2024-03-25T00:23:30;6.40;99.90
12434;DHT22;6281;49.038;8.372;2024-03-25T00:25:57;6.30;99.90
12434;DHT22;6281;49.038;8.372;2024-03-25T00:28:23;6.30;99.90
12434;DHT22;6281;49.038;8.372;2024-03-25T00:30:50;6.40;99.90
12434;DHT22;6281;49.038;8.372;2024-03-25T00:33:16;6.30;99.90
12434;DHT22;6281;49.038;8.372;2024-03-25T00:35:43;6.30;99.90
12434;DHT22;6281;49.038;8.372;2024-03-25T00:38:12;6.30;99.90
12434;DHT22;6281;49.038;8.372;2024-03-25T00:40:39;6.30;99.90
12434;DHT22;6281;49.038;8.372;2024-03-25T00:43:05;6.20;99.90
12434;DHT22;6281;49.038;8.372;2024-03-25T00:45:32;6.30;99.90
12434;DHT22;6281;49.038;8.372;2024-03-25T00:47:58;6.30;99.90
12434;DHT22;6281;49.038;8.372;2024-03-25T00:50:25;6.30;99.90
12434;DHT22;6281;49.038;8.372;2024-03-25T00:52:51;6.30;99.90
12434;DHT22;6281;49.038;8.372;2024-03-25T00:55:19;6.30;99.90
12434;DHT22;6281;49.038;8.372;2024-03-25T00:57:46;6.30;99.90
12434;DHT22;6281;49.038;8.372;2024-03-25T01:00:14;6.30;99.90
12434;DHT22;6281;49.038;8.372;2024-03-25T01:02:41;6.30;99.90
12434;DHT22;6281;49.038;8.372;2024-03-25T01:05:08;6.40;99.90
12434;DHT22;6281;49.038;8.372;2024-03-25T01:07:34;6.20;99.90
12434;DHT22;6281;49.038;8.372;2024-03-25T01:10:01;6.30;99.90
12434;DHT22;6281;49.038;8.372;2024-03-25T01:12:29;6.30;99.90
12434;DHT22;6281;49.038;8.372;2024-03-25T01:14:56;6.30;99.90
12434;DHT22;6281;49.038;8.372;2024-03-25T01:17:22;6.20;99.90
12434;DHT22;6281;49.038;8.372;2024-03-25T01:19:49;6.30;99.90
12434;DHT22;6281;49.038;8.372;2024-03-25T01:22:15;6.30;99.90
12434;DHT22;6281;49.038;8.372;2024-03-25T01:24:42;6.30;99.90
12434;DHT22;6281;49.038;8.372;2024-03-25T01:27:07;6.30;99.90
12434;DHT22;6281;49.038;8.372;2024-03-25T01:29:36;6.20;99.90
12434;DHT22;6281;49.038;8.372;2024-03-25T01:32:02;6.30;99.90
12434;DHT22;6281;49.038;8.372;2024-03-25T01:34:31;6.20;99.90
12434;DHT22;6281;49.038;8.372;2024-03-25T01:36:56;6.30;99.90
12434;DHT22;6281;49.038;8.372;2024-03-25T01:39:23;6.20;99.90
12434;DHT22;6281;49.038;8.372;2024-03-25T01:41:49;6.20;99.90
12434;DHT22;6281;49.038;8.372;2024-03-25T01:44:17;6.20;99.90
12434;DHT22;6281;49.038;8.372;2024-03-25T01:46:44;6.20;99.90
12434;DHT22;6281;49.038;8.372;2024-03-25T01:49:11;6.20;99.90
12434;DHT22;6281;49.038;8.372;2024-03-25T01:51:38;6.20;99.90
12434;DHT22;6281;49.038;8.372;2024-03-25T01:54:06;6.30;99.90
12434;DHT22;6281;49.038;8.372;2024-03-25T01:56:34;6.10;99.90
12434;DHT22;6281;49.038;8.372;2024-03-25T01:59:01;6.10;99.90
12434;DHT22;6281;49.038;8.372;2024-03-25T02:01:28;6.20;99.90
12434;DHT22;6281;49.038;8.372;2024-03-25T02:03:57;6.10;99.90
12434;DHT22;6281;49.038;8.372;2024-03-25T02:06:27;6.20;99.90
12434;DHT22;6281;49.038;8.372;2024-03-25T02:08:55;6.10;99.90
12434;DHT22;6281;49.038;8.372;2024-03-25T02:11:22;6.10;99.90
12434;DHT22;6281;49.038;8.372;2024-03-25T02:13:50;6.10;99.90
12434;DHT22;6281;49.038;8.372;2024-03-25T02:16:17;6.10;99.90
12434;DHT22;6281;49.038;8.372;2024-03-25T02:18:44;6.10;99.90
12434;DHT22;6281;49.038;8.372;2024-03-25T02:21:11;6.10;99.90
12434;DHT22;6281;49.038;8.372;2024-03-25T02:23:39;6.10;99.90
12434;DHT22;6281;49.038;8.372;2024-03-25T02:26:08;6.10;99.90
12434;DHT22;6281;49.038;8.372;2024-03-25T02:28:35;6.20;99.90
12434;DHT22;6281;49.038;8.372;2024-03-25T02:31:01;6.10;99.90
12434;DHT22;6281;49.038;8.372;2024-03-25T02:33:28;6.10;99.90
12434;DHT22;6281;49.038;8.372;2024-03-25T02:35:54;6.10;99.90
12434;DHT22;6281;49.038;8.372;2024-03-25T02:38:21;6.10;99.90
12434;DHT22;6281;49.038;8.372;2024-03-25T02:40:47;6.20;99.90
12434;DHT22;6281;49.038;8.372;2024-03-25T02:43:15;6.10;99.90
12434;DHT22;6281;49.038;8.372;2024-03-25T02:45:41;6.00;99.90
12434;DHT22;6281;49.038;8.372;2024-03-25T02:48:08;6.00;99.90
12434;DHT22;6281;49.038;8.372;2024-03-25T02:50:34;6.00;99.90
12434;DHT22;6281;49.038;8.372;2024-03-25T02:53:01;5.90;99.90
12434;DHT22;6281;49.038;8.372;2024-03-25T02:55:27;5.90;99.90
12434;DHT22;6281;49.038;8.372;2024-03-25T02:57:54;6.00;99.90
12434;DHT22;6281;49.038;8.372;2024-03-25T03:00:21;6.00;99.90
12434;DHT22;6281;49.038;8.372;2024-03-25T03:02:48;5.90;99.90
12434;DHT22;6281;49.038;8.372;2024-03-25T03:05:15;5.80;99.90
12434;DHT22;6281;49.038;8.372;2024-03-25T03:07:42;5.80;99.90
12434;DHT22;6281;49.038;8.372;2024-03-25T03:10:08;5.80;99.90
12434;DHT22;6281;49.038;8.372;2024-03-25T03:12:35;5.90;99.90
12434;DHT22;6281;49.038;8.372;2024-03-25T03:15:01;5.90;99.90
12434;DHT22;6281;49.038;8.372;2024-03-25T03:17:29;5.80;99.90
12434;DHT22;6281;49.038;8.372;2024-03-25T03:19:54;5.90;99.90
12434;DHT22;6281;49.038;8.372;2024-03-25T03:22:21;5.70;99.90
12434;DHT22;6281;49.038;8.372;2024-03-25T03:24:47;5.70;99.90
12434;DHT22;6281;49.038;8.372;2024-03-25T03:27:14;5.90;99.90
12434;DHT22;6281;49.038;8.372;2024-03-25T03:29:40;5.70;99.90
12434;DHT22;6281;49.038;8.372;2024-03-25T03:32:07;5.70;99.90
12434;DHT22;6281;49.038;8.372;2024-03-25T03:34:35;5.70;99.90
12434;DHT22;6281;49.038;8.372;2024-03-25T03:37:02;5.70;99.90
12434;DHT22;6281;49.038;8.372;2024-03-25T03:39:27;5.60;99.90
12434;DHT22;6281;49.038;8.372;2024-03-25T03:41:54;5.70;99.90
12434;DHT22;6281;49.038;8.372;2024-03-25T03:44:20;5.70;99.90
12434;DHT22;6281;49.038;8.372;2024-03-25T03:46:47;5.70;99.90
12434;DHT22;6281;49.038;8.372;2024-03-25T03:49:13;5.70;99.90
12434;DHT22;6281;49.038;8.372;2024-03-25T03:51:41;5.70;99.90
12434;DHT22;6281;49.038;8.372;2024-03-25T03:54:07;5.60;99.90
12434;DHT22;6281;49.038;8.372;2024-03-25T03:56:33;5.70;99.90
12434;DHT22;6281;49.038;8.372;2024-03-25T03:58:59;5.70;99.90
12434;DHT22;6281;49.038;8.372;2024-03-25T04:01:26;5.70;99.90
12434;DHT22;6281;49.038;8.372;2024-03-25T04:03:52;5.70;99.90
12434;DHT22;6281;49.038;8.372;2024-03-25T04:06:19;5.70;99.90
12434;DHT22;6281;49.038;8.372;2024-03-25T04:08:46;5.60;99.90
12434;DHT22;6281;49.038;8.372;2024-03-25T04:11:13;5.70;99.90
12434;DHT22;6281;49.038;8.372;2024-03-25T04:13:38;5.80;99.90
12434;DHT22;6281;49.038;8.372;2024-03-25T04:16:06;5.70;99.90
12434;DHT22;6281;49.038;8.372;2024-03-25T04:18:33;5.70;99.90
12434;DHT22;6281;49.038;8.372;2024-03-25T04:21:00;5.70;99.90
12434;DHT22;6281;49.038;8.372;2024-03-25T04:23:26;5.80;99.90
12434;DHT22;6281;49.038;8.372;2024-03-25T04:25:54;5.70;99.90
12434;DHT22;6281;49.038;8.372;2024-03-25T04:28:20;5.70;99.90
12434;DHT22;6281;49.038;8.372;2024-03-25T04:30:51;5.70;99.90
12434;DHT22;6281;49.038;8.372;2024-03-25T04:33:17;5.60;99.90
12434;DHT22;6281;49.038;8.372;2024-03-25T04:35:45;5.70;99.90
12434;DHT22;6281;49.038;8.372;2024-03-25T04:38:11;5.70;99.90
12434;DHT22;6281;49.038;8.372;2024-03-25T04:40:37;5.60;99.90
12434;DHT22;6281;49.038;8.372;2024-03-25T04:43:04;5.50;99.90
12434;DHT22;6281;49.038;8.372;2024-03-25T04:45:30;5.60;99.90
12434;DHT22;6281;49.038;8.372;2024-03-25T04:47:56;5.60;99.90
12434;DHT22;6281;49.038;8.372;2024-03-25T04:50:22;5.70;99.90
12434;DHT22;6281;49.038;8.372;2024-03-25T04:52:48;5.60;99.90
12434;DHT22;6281;49.038;8.372;2024-03-25T04:55:14;5.60;99.90
12434;DHT22;6281;49.038;8.372;2024-03-25T04:57:40;5.50;99.90
12434;DHT22;6281;49.038;8.372;2024-03-25T05:00:08;5.50;99.90
12434;DHT22;6281;49.038;8.372;2024-03-25T05:02:36;5.50;99.90
12434;DHT22;6281;49.038;8.372;2024-03-25T05:05:02;5.40;99.90
12434;DHT22;6281;49.038;8.372;2024-03-25T05:07:28;5.50;99.90
12434;DHT22;6281;49.038;8.372;2024-03-25T05:09:54;5.40;99.90
12434;DHT22;6281;49.038;8.372;2024-03-25T05:12:20;5.40;99.90
12434;DHT22;6281;49.038;8.372;2024-03-25T05:14:46;5.40;99.90
12434;DHT22;6281;49.038;8.372;2024-03-25T05:17:13;5.40;99.90
12434;DHT22;6281;49.038;8.372;2024-03-25T05:19:39;5.40;99.90
12434;DHT22;6281;49.038;8.372;2024-03-25T05:22:04;5.40;99.90
12434;DHT22;6281;49.038;8.372;2024-03-25T05:24:30;5.40;99.90
12434;DHT22;6281;49.038;8.372;2024-03-25T05:26:56;5.30;99.90
12434;DHT22;6281;49.038;8.372;2024-03-25T05:29:22;5.40;99.90
12434;DHT22;6281;49.038;8.372;2024-03-25T05:31:56;5.40;99.90
12434;DHT22;6281;49.038;8.372;2024-03-25T05:34:24;5.50;99.90
12434;DHT22;6281;49.038;8.372;2024-03-25T05:36:50;5.30;99.90
12434;DHT22;6281;49.038;8.372;2024-03-25T05:39:16;5.50;99.90
12434;DHT22;6281;49.038;8.372;2024-03-25T05:41:42;5.40;99.90
12434;DHT22;6281;49.038;8.372;2024-03-25T05:44:07;5.50;99.90
12434;DHT22;6281;49.038;8.372;2024-03-25T05:46:33;5.20;99.90
12434;DHT22;6281;49.038;8.372;2024-03-25T05:49:01;5.40;99.90
12434;DHT22;6281;49.038;8.372;2024-03-25T05:51:29;5.50;99.90
12434;DHT22;6281;49.038;8.372;2024-03-25T05:53:55;5.40;99.90
12434;DHT22;6281;49.038;8.372;2024-03-25T05:56:21;5.40;99.90
12434;DHT22;6281;49.038;8.372;2024-03-25T05:58:46;5.50;99.90
12434;DHT22;6281;49.038;8.372;2024-03-25T06:01:13;5.30;99.90
12434;DHT22;6281;49.038;8.372;2024-03-25T06:03:39;5.40;99.90
12434;DHT22;6281;49.038;8.372;2024-03-25T06:06:04;5.40;99.90
12434;DHT22;6281;49.038;8.372;2024-03-25T06:08:32;5.50;99.90
12434;DHT22;6281;49.038;8.372;2024-03-25T06:11:01;5.50;99.90
12434;DHT22;6281;49.038;8.372;2024-03-25T06:13:27;5.50;99.90
12434;DHT22;6281;49.038;8.372;2024-03-25T06:15:53;5.60;99.90
12434;DHT22;6281;49.038;8.372;2024-03-25T06:18:19;5.60;99.90
12434;DHT22;6281;49.038;8.372;2024-03-25T06:20:45;5.70;99.90
12434;DHT22;6281;49.038;8.372;2024-03-25T06:23:11;5.70;99.90
12434;DHT22;6281;49.038;8.372;2024-03-25T06:25:48;5.60;99.90
12434;DHT22;6281;49.038;8.372;2024-03-25T06:28:14;5.70;99.90
12434;DHT22;6281;49.038;8.372;2024-03-25T06:30:40;5.70;99.90
12434;DHT22;6281;49.038;8.372;2024-03-25T06:33:24;5.70;99.90
12434;DHT22;6281;49.038;8.372;2024-03-25T06:36:09;5.80;99.90
12434;DHT22;6281;49.038;8.372;2024-03-25T06:38:34;5.90;99.90
12434;DHT22;6281;49.038;8.372;2024-03-25T06:41:02;5.90;99.90
12434;DHT22;6281;49.038;8.372;2024-03-25T06:43:28;5.90;99.90
12434;DHT22;6281;49.038;8.372;2024-03-25T06:45:54;6.00;99.90
12434;DHT22;6281;49.038;8.372;2024-03-25T06:48:19;6.10;99.90
12434;DHT22;6281;49.038;8.372;2024-03-25T06:50:52;6.20;99.90
12434;DHT22;6281;49.038;8.372;2024-03-25T06:53:18;6.20;99.90
12434;DHT22;6281;49.038;8.372;2024-03-25T06:55:51;6.30;99.90
12434;DHT22;6281;49.038;8.372;2024-03-25T06:58:19;6.50;99.90
12434;DHT22;6281;49.038;8.372;2024-03-25T07:00:44;6.50;99.90
12434;DHT22;6281;49.038;8.372;2024-03-25T07:03:10;6.50;99.90
12434;DHT22;6281;49.038;8.372;2024-03-25T07:05:36;6.50;99.90
12434;DHT22;6281;49.038;8.372;2024-03-25T07:08:02;6.60;99.90
12434;DHT22;6281;49.038;8.372;2024-03-25T07:10:28;6.60;99.90
12434;DHT22;6281;49.038;8.372;2024-03-25T07:12:54;6.80;99.90
12434;DHT22;6281;49.038;8.372;2024-03-25T07:15:21;6.80;99.90
12434;DHT22;6281;49.038;8.372;2024-03-25T07:17:47;6.70;99.90
12434;DHT22;6281;49.038;8.372;2024-03-25T07:20:13;6.80;99.90
12434;DHT22;6281;49.038;8.372;2024-03-25T07:22:39;6.80;99.90
12434;DHT22;6281;49.038;8.372;2024-03-25T07:25:05;6.90;99.90
12434;DHT22;6281;49.038;8.372;2024-03-25T07:27:31;7.10;99.90
12434;DHT22;6281;49.038;8.372;2024-03-25T07:29:57;7.10;99.90
12434;DHT22;6281;49.038;8.372;2024-03-25T07:32:24;7.10;99.90
12434;DHT22;6281;49.038;8.372;2024-03-25T07:34:50;7.10;99.90
12434;DHT22;6281;49.038;8.372;2024-03-25T07:37:16;7.20;99.90
12434;DHT22;6281;49.038;8.372;2024-03-25T07:39:42;7.20;99.90
12434;DHT22;6281;49.038;8.372;2024-03-25T07:42:08;7.20;99.90
12434;DHT22;6281;49.038;8.372;2024-03-25T07:44:33;7.30;99.90
12434;DHT22;6281;49.038;8.372;2024-03-25T07:46:59;7.40;99.90
12434;DHT22;6281;49.038;8.372;2024-03-25T07:49:26;7.70;99.90
12434;DHT22;6281;49.038;8.372;2024-03-25T07:51:52;7.60;99.90
12434;DHT22;6281;49.038;8.372;2024-03-25T07:54:18;7.60;99.90
12434;DHT22;6281;49.038;8.372;2024-03-25T07:56:44;7.60;99.90
12434;DHT22;6281;49.038;8.372;2024-03-25T07:59:10;7.40;99.90
12434;DHT22;6281;49.038;8.372;2024-03-25T08:01:36;7.40;99.90
12434;DHT22;6281;49.038;8.372;2024-03-25T08:04:01;7.50;99.90
12434;DHT22;6281;49.038;8.372;2024-03-25T08:06:29;7.50;99.90
12434;DHT22;6281;49.038;8.372;2024-03-25T08:08:55;7.60;99.90
12434;DHT22;6281;49.038;8.372;2024-03-25T08:11:20;7.70;99.90
12434;DHT22;6281;49.038;8.372;2024-03-25T08:13:46;7.90;99.90
12434;DHT22;6281;49.038;8.372;2024-03-25T08:16:12;7.70;99.90
12434;DHT22;6281;49.038;8.372;2024-03-25T08:18:38;7.70;99.90
12434;DHT22;6281;49.038;8.372;2024-03-25T08:21:04;7.70;99.90
12434;DHT22;6281;49.038;8.372;2024-03-25T08:23:31;7.80;99.90
12434;DHT22;6281;49.038;8.372;2024-03-25T08:25:57;8.10;99.90
12434;DHT22;6281;49.038;8.372;2024-03-25T08:28:23;8.30;99.90
12434;DHT22;6281;49.038;8.372;2024-03-25T08:30:48;8.50;99.90
12434;DHT22;6281;49.038;8.372;2024-03-25T08:33:14;8.40;99.90
12434;DHT22;6281;49.038;8.372;2024-03-25T08:35:40;8.40;99.90
12434;DHT22;6281;49.038;8.372;2024-03-25T08:38:06;8.70;99.90
12434;DHT22;6281;49.038;8.372;2024-03-25T08:40:33;8.80;99.90
12434;DHT22;6281;49.038;8.372;2024-03-25T08:42:59;8.90;99.90
12434;DHT22;6281;49.038;8.372;2024-03-25T08:45:25;9.30;99.90
12434;DHT22;6281;49.038;8.372;2024-03-25T08:47:51;8.60;99.90
12434;DHT22;6281;49.038;8.372;2024-03-25T08:50:17;9.20;99.90
12434;DHT22;6281;49.038;8.372;2024-03-25T08:52:43;8.90;99.90
12434;DHT22;6281;49.038;8.372;2024-03-25T08:55:08;8.80;99.90
12434;DHT22;6281;49.038;8.372;2024-03-25T08:57:36;8.80;99.90
12434;DHT22;6281;49.038;8.372;2024-03-25T09:00:02;8.80;99.90
12434;DHT22;6281;49.038;8.372;2024-03-25T09:02:28;8.60;99.90
12434;DHT22;6281;49.038;8.372;2024-03-25T09:04:53;8.90;99.90
12434;DHT22;6281;49.038;8.372;2024-03-25T09:07:19;8.90;99.90
12434;DHT22;6281;49.038;8.372;2024-03-25T09:09:45;8.70;99.90
12434;DHT22;6281;49.038;8.372;2024-03-25T09:12:29;8.70;99.90
12434;DHT22;6281;49.038;8.372;2024-03-25T09:14:56;8.60;99.90
12434;DHT22;6281;49.038;8.372;2024-03-25T09:17:22;9.30;99.90
12434;DHT22;6281;49.038;8.372;2024-03-25T09:19:48;9.90;99.90
12434;DHT22;6281;49.038;8.372;2024-03-25T09:22:14;9.80;99.90
12434;DHT22;6281;49.038;8.372;2024-03-25T09:24:40;9.60;99.90
12434;DHT22;6281;49.038;8.372;2024-03-25T09:27:05;9.80;99.90
12434;DHT22;6281;49.038;8.372;2024-03-25T09:29:31;10.00;99.90
12434;DHT22;6281;49.038;8.372;2024-03-25T09:31:59;9.90;99.90
12434;DHT22;6281;49.038;8.372;2024-03-25T09:34:24;9.80;99.90
12434;DHT22;6281;49.038;8.372;2024-03-25T09:36:50;9.70;99.90
12434;DHT22;6281;49.038;8.372;2024-03-25T09:39:16;10.80;99.90
12434;DHT22;6281;49.038;8.372;2024-03-25T09:41:43;13.30;66.60
12434;DHT22;6281;49.038;8.372;2024-03-25T09:44:09;14.20;46.40
12434;DHT22;6281;49.038;8.372;2024-03-25T09:46:36;13.20;39.30
12434;DHT22;6281;49.038;8.372;2024-03-25T09:49:03;12.30;77.00
12434;DHT22;6281;49.038;8.372;2024-03-25T09:51:29;10.60;91.90
12434;DHT22;6281;49.038;8.372;2024-03-25T09:53:55;10.60;99.90
12434;DHT22;6281;49.038;8.372;2024-03-25T09:56:21;10.20;99.90
12434;DHT22;6281;49.038;8.372;2024-03-25T09:58:47;12.50;99.20
12434;DHT22;6281;49.038;8.372;2024-03-25T10:01:14;13.70;91.80
12434;DHT22;6281;49.038;8.372;2024-03-25T10:03:40;14.90;43.00
12434;DHT22;6281;49.038;8.372;2024-03-25T10:06:07;14.80;43.20
12434;DHT22;6281;49.038;8.372;2024-03-25T10:08:33;16.10;90.00
12434;DHT22;6281;49.038;8.372;2024-03-25T10:11:00;17.40;41.00
12434;DHT22;6281;49.038;8.372;2024-03-25T10:13:26;17.00;39.80
12434;DHT22;6281;49.038;8.372;2024-03-25T10:15:52;19.00;46.70
12434;DHT22;6281;49.038;8.372;2024-03-25T10:18:18;18.70;37.30
12434;DHT22;6281;49.038;8.372;2024-03-25T10:20:50;18.80;33.00
12434;DHT22;6281;49.038;8.372;2024-03-25T10:23:21;18.50;31.70
12434;DHT22;6281;49.038;8.372;2024-03-25T10:25:48;18.00;23.20
12434;DHT22;6281;49.038;8.372;2024-03-25T10:28:14;19.30;27.00
12434;DHT22;6281;49.038;8.372;2024-03-25T10:30:41;17.30;21.50
12434;DHT22;6281;49.038;8.372;2024-03-25T10:33:07;18.30;25.60
12434;DHT22;6281;49.038;8.372;2024-03-25T10:35:34;18.60;22.70
12434;DHT22;6281;49.038;8.372;2024-03-25T10:38:01;20.70;26.80
12434;DHT22;6281;49.038;8.372;2024-03-25T10:40:30;19.20;20.10
12434;DHT22;6281;49.038;8.372;2024-03-25T10:43:01;20.50;20.10
12434;DHT22;6281;49.038;8.372;2024-03-25T10:45:29;20.30;19.50
12434;DHT22;6281;49.038;8.372;2024-03-25T10:47:57;20.70;44.50
12434;DHT22;6281;49.038;8.372;2024-03-25T10:50:26;19.90;18.40
12434;DHT22;6281;49.038;8.372;2024-03-25T10:52:54;20.50;21.90
12434;DHT22;6281;49.038;8.372;2024-03-25T10:55:20;20.70;25.50
12434;DHT22;6281;49.038;8.372;2024-03-25T10:57:48;22.60;24.00
12434;DHT22;6281;49.038;8.372;2024-03-25T11:00:16;22.30;25.30
12434;DHT22;6281;49.038;8.372;2024-03-25T11:02:42;20.80;16.90
12434;DHT22;6281;49.038;8.372;2024-03-25T11:05:09;22.60;26.00
12434;DHT22;6281;49.038;8.372;2024-03-25T11:07:35;20.50;17.50
12434;DHT22;6281;49.038;8.372;2024-03-25T11:10:06;20.50;16.90
12434;DHT22;6281;49.038;8.372;2024-03-25T11:12:34;19.10;14.50
12434;DHT22;6281;49.038;8.372;2024-03-25T11:15:02;17.10;16.40
12434;DHT22;6281;49.038;8.372;2024-03-25T11:17:29;18.00;25.20
12434;DHT22;6281;49.038;8.372;2024-03-25T11:20:07;21.50;22.60
12434;DHT22;6281;49.038;8.372;2024-03-25T11:22:33;20.40;21.00
12434;DHT22;6281;49.038;8.372;2024-03-25T11:25:05;21.10;20.20
12434;DHT22;6281;49.038;8.372;2024-03-25T11:27:33;21.10;17.60
12434;DHT22;6281;49.038;8.372;2024-03-25T11:30:05;17.80;27.60
12434;DHT22;6281;49.038;8.372;2024-03-25T11:32:45;20.10;20.90
12434;DHT22;6281;49.038;8.372;2024-03-25T11:35:11;21.40;20.40
12434;DHT22;6281;49.038;8.372;2024-03-25T11:37:41;21.00;18.60
12434;DHT22;6281;49.038;8.372;2024-03-25T11:40:08;21.00;19.30
12434;DHT22;6281;49.038;8.372;2024-03-25T11:42:34;20.50;19.50
12434;DHT22;6281;49.038;8.372;2024-03-25T11:45:01;20.70;20.20
12434;DHT22;6281;49.038;8.372;2024-03-25T11:47:28;21.50;19.90
12434;DHT22;6281;49.038;8.372;2024-03-25T11:49:54;19.40;19.20
12434;DHT22;6281;49.038;8.372;2024-03-25T11:52:20;19.40;20.00
12434;DHT22;6281;49.038;8.372;2024-03-25T11:54:54;18.80;21.00
12434;DHT22;6281;49.038;8.372;2024-03-25T11:57:20;19.30;24.70
12434;DHT22;6281;49.038;8.372;2024-03-25T11:59:46;19.70;24.70
12434;DHT22;6281;49.038;8.372;2024-03-25T12:02:13;19.90;43.20
12434;DHT22;6281;49.038;8.372;2024-03-25T12:04:42;18.00;27.60
12434;DHT22;6281;49.038;8.372;2024-03-25T12:07:09;16.70;26.00
12434;DHT22;6281;49.038;8.372;2024-03-25T12:09:35;17.70;27.80
12434;DHT22;6281;49.038;8.372;2024-03-25T12:12:19;17.60;25.30
12434;DHT22;6281;49.038;8.372;2024-03-25T12:14:45;17.30;28.20
12434;DHT22;6281;49.038;8.372;2024-03-25T12:17:11;17.60;84.90
12434;DHT22;6281;49.038;8.372;2024-03-25T12:19:37;17.30;33.50
12434;DHT22;6281;49.038;8.372;2024-03-25T12:22:05;17.50;34.10
12434;DHT22;6281;49.038;8.372;2024-03-25T12:24:30;15.70;44.10
12434;DHT22;6281;49.038;8.372;2024-03-25T12:26:57;15.20;39.30
12434;DHT22;6281;49.038;8.372;2024-03-25T12:29:23;15.50;37.60
12434;DHT22;6281;49.038;8.372;2024-03-25T12:31:54;15.00;33.30
12434;DHT22;6281;49.038;8.372;2024-03-25T12:34:20;15.80;41.80
12434;DHT22;6281;49.038;8.372;2024-03-25T12:36:46;15.20;37.80
12434;DHT22;6281;49.038;8.372;2024-03-25T12:39:17;16.50;53.20
12434;DHT22;6281;49.038;8.372;2024-03-25T12:41:42;16.40;27.80
12434;DHT22;6281;49.038;8.372;2024-03-25T12:44:09;16.50;23.30
12434;DHT22;6281;49.038;8.372;2024-03-25T12:46:35;16.50;27.90
12434;DHT22;6281;49.038;8.372;2024-03-25T12:49:01;17.30;35.20
12434;DHT22;6281;49.038;8.372;2024-03-25T12:51:27;18.40;41.60
12434;DHT22;6281;49.038;8.372;2024-03-25T12:53:52;16.60;30.90
12434;DHT22;6281;49.038;8.372;2024-03-25T12:56:20;15.50;35.40
12434;DHT22;6281;49.038;8.372;2024-03-25T12:58:45;14.40;33.70
12434;DHT22;6281;49.038;8.372;2024-03-25T13:01:11;14.30;34.00
12434;DHT22;6281;49.038;8.372;2024-03-25T13:03:37;13.90;35.70
12434;DHT22;6281;49.038;8.372;2024-03-25T13:06:04;13.90;43.20
12434;DHT22;6281;49.038;8.372;2024-03-25T13:08:30;14.00;38.80
12434;DHT22;6281;49.038;8.372;2024-03-25T13:10:55;15.40;40.80
12434;DHT22;6281;49.038;8.372;2024-03-25T13:13:23;15.60;32.00
12434;DHT22;6281;49.038;8.372;2024-03-25T13:15:49;16.20;32.30
12434;DHT22;6281;49.038;8.372;2024-03-25T13:18:15;16.10;33.90
12434;DHT22;6281;49.038;8.372;2024-03-25T13:20:40;15.30;33.60
12434;DHT22;6281;49.038;8.372;2024-03-25T13:23:06;14.80;33.30
12434;DHT22;6281;49.038;8.372;2024-03-25T13:25:32;15.20;39.60
12434;DHT22;6281;49.038;8.372;2024-03-25T13:27:58;16.10;40.10
12434;DHT22;6281;49.038;8.372;2024-03-25T13:30:25;16.40;31.10
12434;DHT22;6281;49.038;8.372;2024-03-25T13:32:51;16.50;29.80
12434;DHT22;6281;49.038;8.372;2024-03-25T13:35:17;16.10;30.00
12434;DHT22;6281;49.038;8.372;2024-03-25T13:37:43;16.60;31.60
12434;DHT22;6281;49.038;8.372;2024-03-25T13:40:10;16.40;29.40
12434;DHT22;6281;49.038;8.372;2024-03-25T13:42:36;16.70;32.10
12434;DHT22;6281;49.038;8.372;2024-03-25T13:45:02;16.70;32.70
12434;DHT22;6281;49.038;8.372;2024-03-25T13:47:30;16.80;30.30
12434;DHT22;6281;49.038;8.372;2024-03-25T13:50:02;17.00;29.00
12434;DHT22;6281;49.038;8.372;2024-03-25T13:52:28;16.90;26.40
12434;DHT22;6281;49.038;8.372;2024-03-25T13:54:54;16.40;27.40
12434;DHT22;6281;49.038;8.372;2024-03-25T13:57:20;16.90;29.30
12434;DHT22;6281;49.038;8.372;2024-03-25T13:59:46;16.90;28.10
12434;DHT22;6281;49.038;8.372;2024-03-25T14:02:12;17.50;29.40
12434;DHT22;6281;49.038;8.372;2024-03-25T14:04:39;16.70;27.40
12434;DHT22;6281;49.038;8.372;2024-03-25T14:07:05;16.60;27.10
12434;DHT22;6281;49.038;8.372;2024-03-25T14:09:31;16.50;28.10
12434;DHT22;6281;49.038;8.372;2024-03-25T14:11:56;16.80;27.50
12434;DHT22;6281;49.038;8.372;2024-03-25T14:14:22;17.30;26.50
12434;DHT22;6281;49.038;8.372;2024-03-25T14:16:48;16.70;26.10
12434;DHT22;6281;49.038;8.372;2024-03-25T14:19:14;16.90;26.70
12434;DHT22;6281;49.038;8.372;2024-03-25T14:21:41;16.60;28.40
12434;DHT22;6281;49.038;8.372;2024-03-25T14:24:07;17.20;27.20
12434;DHT22;6281;49.038;8.372;2024-03-25T14:26:34;17.30;26.50
12434;DHT22;6281;49.038;8.372;2024-03-25T14:29:00;17.50;25.90
12434;DHT22;6281;49.038;8.372;2024-03-25T14:31:26;17.40;26.20
12434;DHT22;6281;49.038;8.372;2024-03-25T14:33:52;17.50;25.00
12434;DHT22;6281;49.038;8.372;2024-03-25T14:36:17;17.40;24.10
12434;DHT22;6281;49.038;8.372;2024-03-25T14:38:47;17.00;24.30
12434;DHT22;6281;49.038;8.372;2024-03-25T14:41:17;17.10;25.70
12434;DHT22;6281;49.038;8.372;2024-03-25T14:43:43;16.80;23.80
12434;DHT22;6281;49.038;8.372;2024-03-25T14:46:09;17.10;25.60
12434;DHT22;6281;49.038;8.372;2024-03-25T14:48:35;17.40;25.00
12434;DHT22;6281;49.038;8.372;2024-03-25T14:51:01;16.90;24.40
12434;DHT22;6281;49.038;8.372;2024-03-25T14:53:27;16.90;24.60
12434;DHT22;6281;49.038;8.372;2024-03-25T14:55:54;17.20;24.90
12434;DHT22;6281;49.038;8.372;2024-03-25T14:58:20;17.00;23.80
12434;DHT22;6281;49.038;8.372;2024-03-25T15:00:46;17.20;22.80
12434;DHT22;6281;49.038;8.372;2024-03-25T15:03:12;17.60;23.60
12434;DHT22;6281;49.038;8.372;2024-03-25T15:05:38;18.30;22.20
12434;DHT22;6281;49.038;8.372;2024-03-25T15:08:05;18.10;23.90
12434;DHT22;6281;49.038;8.372;2024-03-25T15:10:33;17.60;24.00
12434;DHT22;6281;49.038;8.372;2024-03-25T15:13:01;17.60;23.60
12434;DHT22;6281;49.038;8.372;2024-03-25T15:15:27;17.50;24.20
12434;DHT22;6281;49.038;8.372;2024-03-25T15:17:53;17.40;24.30
12434;DHT22;6281;49.038;8.372;2024-03-25T15:20:19;17.10;23.40
12434;DHT22;6281;49.038;8.372;2024-03-25T15:22:45;18.60;23.70
12434;DHT22;6281;49.038;8.372;2024-03-25T15:25:11;18.80;22.50
12434;DHT22;6281;49.038;8.372;2024-03-25T15:27:37;18.50;22.00
12434;DHT22;6281;49.038;8.372;2024-03-25T15:30:06;18.40;22.20
12434;DHT22;6281;49.038;8.372;2024-03-25T15:32:32;18.20;22.40
12434;DHT22;6281;49.038;8.372;2024-03-25T15:34:58;17.40;23.50
12434;DHT22;6281;49.038;8.372;2024-03-25T15:37:24;18.20;23.70
12434;DHT22;6281;49.038;8.372;2024-03-25T15:39:50;17.30;22.90
12434;DHT22;6281;49.038;8.372;2024-03-25T15:42:16;16.80;22.60
12434;DHT22;6281;49.038;8.372;2024-03-25T15:44:42;17.40;22.00
12434;DHT22;6281;49.038;8.372;2024-03-25T15:47:10;17.30;21.20
12434;DHT22;6281;49.038;8.372;2024-03-25T15:49:36;18.00;22.20
12434;DHT22;6281;49.038;8.372;2024-03-25T15:52:01;18.50;21.60